Time;durP1;ratioP1;P1;durP2;ratioP2;P2;SDS_P1;SDS_P2;PMS_P1;PMS_P2;Temp;Humidity;BMP_temperature;BMP_pressure;BME280_temperature;BME280_humidity;BME280_pressure;Samples;Min_cycle;Max_cycle;Signal;HPM_P1;HPM_P2
2023/01/24 00:00:46;;;;;;;23.48;12.50;;;3.80;99.90;;;;;;4815632;29;20115;-73
2023/01/24 00:03:12;;;;;;;21.92;12.95;;;3.80;99.90;;;;;;4815032;29;20353;-73
2023/01/24 00:05:42;;;;;;;22.58;12.82;;;3.80;99.90;;;;;;4816022;29;20116;-75
2023/01/24 00:08:10;;;;;;;24.13;12.80;;;3.80;99.90;;;;;;4815339;29;20055;-75
2023/01/24 00:10:36;;;;;;;22.20;12.48;;;3.80;99.90;;;;;;4815760;29;20339;-74
2023/01/24 00:13:02;;;;;;;21.50;12.45;;;3.70;99.90;;;;;;4815344;29;20039;-76
2023/01/24 00:15:28;;;;;;;20.60;11.88;;;3.70;99.90;;;;;;4815805;29;20087;-76
2023/01/24 00:17:53;;;;;;;21.45;12.20;;;3.80;99.90;;;;;;4815553;29;20251;-74
2023/01/24 00:20:19;;;;;;;19.67;11.60;;;3.80;99.90;;;;;;4813870;29;20368;-75
2023/01/24 00:22:45;;;;;;;18.65;11.27;;;3.80;99.90;;;;;;4815425;29;20103;-77
2023/01/24 00:25:11;;;;;;;21.08;11.77;;;3.80;99.90;;;;;;4814991;29;20067;-75
2023/01/24 00:27:37;;;;;;;20.00;12.00;;;3.80;99.90;;;;;;4815044;29;20049;-75
2023/01/24 00:30:05;;;;;;;20.63;12.20;;;3.80;99.90;;;;;;4828960;29;20050;-74
2023/01/24 06:01:55;;;;;;;24.05;13.23;;;3.80;99.90;;;;;;5611140;23;20053;-76
2023/01/24 06:04:21;;;;;;;22.20;12.27;;;3.80;99.90;;;;;;4877211;29;20364;-77
2023/01/24 06:06:48;;;;;;;21.25;11.98;;;3.80;99.90;;;;;;4877091;29;20080;-75
2023/01/24 06:09:14;;;;;;;21.90;12.90;;;3.80;99.90;;;;;;4882259;29;20036;-75
2023/01/24 06:11:39;;;;;;;23.52;12.82;;;3.80;99.90;;;;;;4886673;29;20033;-75
2023/01/24 06:14:16;;;;;;;22.63;12.50;;;3.90;99.90;;;;;;4887262;29;20034;-76
2023/01/24 06:16:44;;;;;;;23.17;12.25;;;3.80;99.90;;;;;;4871152;29;20100;-76
2023/01/24 06:19:13;;;;;;;21.83;11.98;;;3.80;99.90;;;;;;4894440;29;20040;-77
2023/01/24 06:21:45;;;;;;;22.15;11.65;;;3.80;99.90;;;;;;4870622;29;20337;-75
2023/01/24 06:24:18;;;;;;;26.30;13.38;;;3.90;99.90;;;;;;4887187;29;20223;-74
2023/01/24 06:26:54;;;;;;;24.52;11.85;;;3.90;99.90;;;;;;4886757;29;20036;-75
2023/01/24 06:29:21;;;;;;;22.02;11.48;;;3.90;99.90;;;;;;4872348;29;20049;-76
2023/01/24 06:32:06;;;;;;;21.83;12.48;;;3.90;99.90;;;;;;4872400;29;20043;-75
2023/01/24 06:35:07;;;;;;;20.65;11.80;;;3.90;99.90;;;;;;4871653;29;20041;-76
2023/01/24 06:37:46;;;;;;;23.25;12.60;;;3.90;99.90;;;;;;4872050;29;20038;-75
2023/01/24 06:40:14;;;;;;;25.15;13.00;;;3.80;99.90;;;;;;4870990;29;20042;-76
2023/01/24 06:42:40;;;;;;;25.48;13.20;;;3.80;99.90;;;;;;4872210;29;20056;-76
2023/01/24 06:45:07;;;;;;;25.42;13.93;;;3.80;99.90;;;;;;4872256;29;20064;-74
2023/01/24 06:47:33;;;;;;;27.10;13.93;;;3.70;99.90;;;;;;4871223;29;20075;-75
2023/01/24 06:49:59;;;;;;;26.77;14.23;;;3.70;99.90;;;;;;4875952;29;20033;-75
2023/01/24 06:52:25;;;;;;;25.63;14.02;;;3.60;99.90;;;;;;4892067;29;20159;-75
2023/01/24 06:54:51;;;;;;;27.63;14.32;;;3.50;99.90;;;;;;4881835;29;20059;-74
2023/01/24 06:57:16;;;;;;;27.63;14.00;;;3.50;99.90;;;;;;4900028;29;20330;-75
2023/01/24 06:59:42;;;;;;;27.48;14.60;;;3.50;99.90;;;;;;4880599;29;20242;-75
2023/01/24 07:02:09;;;;;;;27.30;14.60;;;3.50;99.90;;;;;;4882587;29;20072;-77
2023/01/24 07:04:36;;;;;;;29.17;14.23;;;3.50;99.90;;;;;;4871508;29;20033;-75
2023/01/24 07:07:03;;;;;;;27.25;14.95;;;3.50;99.90;;;;;;4871234;29;20315;-76
2023/01/24 07:09:28;;;;;;;40.63;21.95;;;3.50;99.90;;;;;;4856409;29;20033;-76
2023/01/24 07:11:57;;;;;;;28.20;15.30;;;3.50;99.90;;;;;;4871378;29;20095;-75
2023/01/24 07:14:23;;;;;;;28.10;14.80;;;3.50;99.90;;;;;;4871193;29;20030;-74
2023/01/24 07:16:50;;;;;;;26.48;14.10;;;3.50;99.90;;;;;;4871499;29;20041;-74
2023/01/24 07:19:21;;;;;;;23.38;12.68;;;3.40;99.90;;;;;;4870976;29;20319;-77
2023/01/24 07:21:47;;;;;;;28.48;14.82;;;3.40;99.90;;;;;;4871164;29;20053;-73
2023/01/24 07:24:19;;;;;;;28.70;14.23;;;3.50;99.90;;;;;;4869800;29;20038;-75
2023/01/24 07:26:45;;;;;;;28.63;14.73;;;3.50;99.90;;;;;;4852673;29;20033;-75
2023/01/24 07:29:11;;;;;;;25.73;14.82;;;3.50;99.90;;;;;;4852888;29;20323;-75
2023/01/24 07:31:37;;;;;;;29.08;14.57;;;3.50;99.90;;;;;;4852314;29;20034;-76
2023/01/24 07:34:03;;;;;;;30.17;16.60;;;3.40;99.90;;;;;;4852432;29;20261;-74
2023/01/24 07:36:29;;;;;;;28.90;15.45;;;3.40;99.90;;;;;;4852417;29;20074;-73
2023/01/24 07:38:58;;;;;;;27.15;14.40;;;3.50;99.90;;;;;;4852747;29;20038;-74
2023/01/24 07:41:24;;;;;;;28.35;14.65;;;3.50;99.90;;;;;;4852567;29;20026;-75
2023/01/24 07:43:53;;;;;;;27.05;14.85;;;3.50;99.90;;;;;;4866786;29;20041;-75
2023/01/24 07:46:19;;;;;;;39.47;21.45;;;3.50;99.90;;;;;;4852244;29;20041;-75
2023/01/24 07:48:45;;;;;;;26.40;14.77;;;3.50;99.90;;;;;;4852118;29;20094;-77
2023/01/24 07:51:11;;;;;;;23.67;13.60;;;3.60;99.90;;;;;;4860062;29;20049;-77
2023/01/24 07:53:36;;;;;;;25.23;12.85;;;3.60;99.90;;;;;;4870097;29;20098;-74
2023/01/24 07:56:03;;;;;;;24.52;13.23;;;3.60;99.90;;;;;;4870746;29;20116;-76
2023/01/24 07:58:30;;;;;;;25.20;12.90;;;3.60;99.90;;;;;;4856765;29;20038;-77
2023/01/24 08:00:55;;;;;;;25.00;13.05;;;3.70;99.90;;;;;;4870989;29;20270;-77
2023/01/24 08:03:21;;;;;;;24.20;12.50;;;3.70;99.90;;;;;;4870170;29;20057;-77
2023/01/24 08:05:47;;;;;;;27.63;13.02;;;3.60;99.90;;;;;;4870258;29;20046;-77
2023/01/24 08:08:12;;;;;;;25.90;13.52;;;3.70;99.90;;;;;;4869233;29;20033;-77
2023/01/24 08:10:38;;;;;;;25.15;13.13;;;3.60;99.90;;;;;;4870048;29;20040;-76
2023/01/24 08:13:04;;;;;;;24.05;12.82;;;3.70;99.90;;;;;;4870438;29;20038;-76
2023/01/24 08:15:30;;;;;;;26.35;13.15;;;3.70;99.90;;;;;;4869946;29;20211;-78
2023/01/24 08:17:56;;;;;;;23.20;12.75;;;3.70;99.90;;;;;;4870253;29;20039;-75
2023/01/24 08:20:22;;;;;;;25.65;12.75;;;3.70;99.90;;;;;;4869050;29;20033;-78
2023/01/24 08:22:47;;;;;;;24.50;12.18;;;3.70;99.90;;;;;;4869623;29;20041;-77
2023/01/24 08:25:13;;;;;;;24.45;13.23;;;3.80;99.90;;;;;;4869225;29;20041;-75
2023/01/24 08:27:42;;;;;;;23.63;12.18;;;3.80;99.90;;;;;;4869397;29;20366;-77
2023/01/24 08:30:11;;;;;;;25.98;13.10;;;3.80;99.90;;;;;;4870191;29;20040;-76
2023/01/24 08:32:37;;;;;;;25.10;12.82;;;3.80;99.90;;;;;;4883993;29;20041;-77
2023/01/24 08:35:04;;;;;;;26.45;13.52;;;3.90;99.90;;;;;;4870116;29;20029;-77
2023/01/24 08:37:30;;;;;;;22.30;12.20;;;3.90;99.90;;;;;;4869145;29;20056;-75
2023/01/24 08:39:58;;;;;;;24.88;12.85;;;3.90;99.90;;;;;;4869694;29;20026;-75
2023/01/24 08:42:24;;;;;;;;;;;4.00;99.90;;;;;;4870115;29;20270;-75
2023/01/24 08:44:50;;;;;;;23.63;12.43;;;4.00;99.90;;;;;;4869207;29;19908;-75
2023/01/24 08:47:16;;;;;;;26.15;12.95;;;4.00;99.90;;;;;;4869559;29;20181;-76
2023/01/24 08:49:42;;;;;;;22.63;11.85;;;4.00;99.90;;;;;;4869286;29;20041;-74
2023/01/24 08:52:08;;;;;;;21.95;12.15;;;4.00;99.90;;;;;;4869248;29;20118;-76
2023/01/24 08:54:35;;;;;;;22.95;12.25;;;4.10;99.90;;;;;;4868933;29;20036;-76
2023/01/24 08:57:02;;;;;;;24.27;12.13;;;4.10;99.90;;;;;;4869495;29;20104;-76
2023/01/24 08:59:28;;;;;;;24.20;12.43;;;4.10;99.90;;;;;;4868972;29;20397;-76
2023/01/24 09:01:54;;;;;;;23.35;12.05;;;4.10;99.90;;;;;;4869011;29;20045;-76
2023/01/24 09:04:20;;;;;;;21.67;11.73;;;4.10;99.90;;;;;;4869630;29;20032;-77
2023/01/24 09:06:46;;;;;;;24.63;12.68;;;4.20;99.90;;;;;;4867978;29;20081;-78
2023/01/24 09:09:12;;;;;;;21.17;11.55;;;4.20;99.90;;;;;;4869538;29;20029;-76
2023/01/24 09:11:37;;;;;;;24.35;13.02;;;4.30;99.90;;;;;;4868711;29;20055;-74
2023/01/24 09:14:03;;;;;;;23.88;13.02;;;4.30;99.90;;;;;;4869185;29;20029;-75
2023/01/24 09:16:29;;;;;;;25.20;12.80;;;4.30;99.90;;;;;;4868547;29;20029;-76
2023/01/24 09:18:55;;;;;;;24.15;13.05;;;4.30;99.90;;;;;;4869139;29;20122;-75
2023/01/24 09:21:21;;;;;;;24.73;13.25;;;4.40;99.90;;;;;;4858643;29;20034;-74
2023/01/24 09:23:47;;;;;;;21.70;13.20;;;4.40;99.90;;;;;;4866305;29;20284;-75
2023/01/24 09:26:13;;;;;;;22.23;12.25;;;4.50;99.90;;;;;;4862742;29;20082;-74
2023/01/24 09:28:40;;;;;;;22.63;12.07;;;4.50;99.90;;;;;;4868665;29;20278;-77
2023/01/24 09:31:08;;;;;;;23.33;11.48;;;4.40;99.90;;;;;;4832897;29;20148;-76
2023/01/24 09:33:34;;;;;;;18.83;10.68;;;4.40;99.90;;;;;;4868830;29;20086;-76
2023/01/24 09:36:02;;;;;;;20.55;11.85;;;4.40;99.90;;;;;;4869164;29;20052;-75
2023/01/24 09:38:30;;;;;;;20.35;10.75;;;4.40;99.90;;;;;;4868452;29;20041;-74
2023/01/24 09:41:09;;;;;;;19.92;11.20;;;4.40;99.90;;;;;;4869174;29;20034;-77
2023/01/24 09:43:35;;;;;;;28.15;12.52;;;4.40;99.90;;;;;;4868899;29;20033;-74
2023/01/24 09:46:15;;;;;;;20.77;10.65;;;4.40;99.90;;;;;;4883200;29;20045;-74
2023/01/24 09:48:42;;;;;;;18.90;10.43;;;4.40;99.90;;;;;;4868391;29;20025;-76
2023/01/24 09:51:25;;;;;;;18.85;10.73;;;4.40;99.90;;;;;;4868757;29;20315;-75
2023/01/24 09:53:55;;;;;;;21.73;11.05;;;4.50;99.90;;;;;;4868297;29;20150;-74
2023/01/24 09:56:30;;;;;;;20.80;10.48;;;4.40;99.90;;;;;;4868862;29;20041;-75
2023/01/24 09:59:19;;;;;;;20.77;9.90;;;4.40;99.90;;;;;;4851534;29;20330;-76
2023/01/24 10:01:50;;;;;;;19.10;10.63;;;4.50;99.90;;;;;;4851953;29;20049;-75
2023/01/24 10:04:30;;;;;;;18.85;10.50;;;4.50;99.90;;;;;;4850258;29;20331;-76
2023/01/24 10:07:13;;;;;;;23.35;10.15;;;4.50;99.90;;;;;;4850502;29;20033;-76
2023/01/24 10:10:07;;;;;;;18.58;9.60;;;4.50;99.90;;;;;;4850131;29;20042;-74
2023/01/24 10:13:02;;;;;;;18.48;9.73;;;4.50;99.90;;;;;;4850630;29;20059;-75
2023/01/24 10:15:53;;;;;;;18.58;9.85;;;4.50;99.90;;;;;;4850225;29;20026;-76
2023/01/24 10:18:59;;;;;;;20.17;9.48;;;4.50;99.90;;;;;;4850126;29;20246;-74
2023/01/24 10:21:33;;;;;;;20.20;9.57;;;4.50;99.90;;;;;;4858298;29;20049;-75
2023/01/24 10:24:04;;;;;;;18.50;9.50;;;4.60;99.90;;;;;;4850207;29;20050;-74
2023/01/24 10:26:48;;;;;;;17.23;9.75;;;4.70;99.90;;;;;;4849817;29;20061;-76
2023/01/24 10:29:26;;;;;;;16.63;8.88;;;4.70;99.90;;;;;;4853640;29;20054;-75
2023/01/24 10:32:10;;;;;;;17.55;9.52;;;4.70;99.90;;;;;;4853361;29;20033;-75
2023/01/24 10:34:47;;;;;;;17.92;8.93;;;4.70;99.90;;;;;;4852862;29;20060;-75
2023/01/24 10:37:21;;;;;;;16.48;9.10;;;4.80;99.90;;;;;;4853327;29;20220;-76
2023/01/24 10:39:47;;;;;;;16.52;8.77;;;4.90;99.90;;;;;;4853056;29;20029;-75
2023/01/24 10:42:27;;;;;;;16.17;8.35;;;5.00;99.90;;;;;;4853160;29;20327;-76
2023/01/24 10:44:57;;;;;;;19.75;9.00;;;5.00;99.90;;;;;;4853127;29;20026;-75
2023/01/24 10:47:46;;;;;;;17.42;9.13;;;5.00;99.90;;;;;;4853177;29;20033;-74
2023/01/24 10:50:16;;;;;;;16.80;9.13;;;5.00;99.90;;;;;;4853596;29;20101;-74
2023/01/24 10:52:42;;;;;;;15.68;8.38;;;5.10;99.90;;;;;;4871157;29;20315;-74
2023/01/24 10:55:47;;;;;;;14.98;8.27;;;5.10;99.90;;;;;;4871543;29;20033;-74
2023/01/24 10:58:26;;;;;;;15.63;8.20;;;5.10;99.90;;;;;;4871587;29;20307;-74
2023/01/24 11:00:57;;;;;;;13.45;7.20;;;5.20;99.90;;;;;;4852327;29;20034;-74
2023/01/24 11:03:28;;;;;;;14.23;7.63;;;5.10;99.90;;;;;;4852907;29;20228;-75
2023/01/24 11:05:56;;;;;;;16.40;8.02;;;5.20;99.90;;;;;;4852387;29;20256;-74
2023/01/24 11:08:32;;;;;;;15.85;8.50;;;5.20;99.90;;;;;;4852392;29;20037;-75
2023/01/24 11:10:59;;;;;;;15.85;7.85;;;5.20;99.90;;;;;;4852329;29;20312;-74
2023/01/24 11:13:38;;;;;;;15.45;7.47;;;5.30;99.90;;;;;;4852945;29;20065;-74
2023/01/24 11:16:25;;;;;;;16.58;9.07;;;5.40;99.90;;;;;;4853043;29;20029;-73
2023/01/24 11:18:56;;;;;;;15.10;8.37;;;5.50;99.90;;;;;;4852423;29;20061;-74
2023/01/24 11:21:22;;;;;;;14.63;8.20;;;5.60;99.90;;;;;;4852512;29;20485;-73
2023/01/24 11:24:04;;;;;;;15.65;7.55;;;5.60;99.90;;;;;;4851035;29;20300;-74
2023/01/24 11:26:35;;;;;;;14.60;8.00;;;5.70;99.90;;;;;;4852714;29;20350;-76
2023/01/24 11:29:06;;;;;;;14.77;8.35;;;5.60;99.90;;;;;;4852433;29;20033;-73
2023/01/24 11:31:37;;;;;;;16.50;8.30;;;5.60;99.90;;;;;;4852118;29;20053;-74
2023/01/24 11:34:15;;;;;;;17.25;8.50;;;5.50;99.90;;;;;;4852645;29;20216;-73
2023/01/24 11:36:46;;;;;;;14.20;8.00;;;5.50;99.90;;;;;;4851945;29;20044;-74
2023/01/24 11:39:25;;;;;;;17.83;7.75;;;5.60;99.90;;;;;;4851662;29;20206;-75
2023/01/24 11:42:13;;;;;;;13.82;7.88;;;5.60;99.90;;;;;;4852041;29;20042;-75
2023/01/24 11:44:56;;;;;;;14.75;7.65;;;5.60;99.90;;;;;;4866272;29;20056;-76
2023/01/24 11:47:47;;;;;;;14.05;8.00;;;5.60;99.90;;;;;;4866473;29;20051;-77
2023/01/24 11:50:55;;;;;;;18.15;9.05;;;5.70;99.90;;;;;;4851759;29;20034;-73
2023/01/24 11:53:34;;;;;;;15.45;8.93;;;5.70;99.90;;;;;;4870148;29;20038;-75
2023/01/24 11:56:13;;;;;;;16.70;8.32;;;5.80;99.90;;;;;;4870591;29;20303;-75
2023/01/24 11:58:54;;;;;;;14.68;8.07;;;5.80;99.90;;;;;;4870235;29;20040;-76
2023/01/24 12:01:37;;;;;;;14.65;8.13;;;5.80;99.90;;;;;;4870191;29;20355;-75
2023/01/24 12:04:15;;;;;;;14.82;8.82;;;5.90;99.90;;;;;;4870694;29;20315;-75
2023/01/24 12:06:45;;;;;;;14.60;8.48;;;5.90;99.90;;;;;;4870040;29;20082;-75
2023/01/24 12:09:29;;;;;;;14.35;7.88;;;5.90;99.90;;;;;;4870154;29;20043;-74
2023/01/24 12:12:17;;;;;;;16.58;8.10;;;5.90;99.90;;;;;;4870217;29;20053;-75
2023/01/24 12:15:15;;;;;;;14.02;8.15;;;6.00;99.90;;;;;;4869021;29;20045;-74
2023/01/24 12:18:16;;;;;;;16.02;8.23;;;6.00;99.90;;;;;;4875921;29;20368;-76
2023/01/24 12:20:42;;;;;;;14.95;7.93;;;5.90;99.90;;;;;;4870136;29;20070;-75
2023/01/24 12:23:46;;;;;;;14.25;8.23;;;5.90;99.90;;;;;;4884668;29;20173;-75
2023/01/24 12:26:26;;;;;;;13.75;7.90;;;5.80;99.90;;;;;;4868955;29;20116;-75
2023/01/24 12:29:13;;;;;;;15.88;7.90;;;5.70;99.90;;;;;;4869425;29;20169;-75
2023/01/24 12:31:53;;;;;;;14.90;7.60;;;5.70;99.90;;;;;;4869606;29;20062;-74
2023/01/24 12:34:56;;;;;;;15.15;9.05;;;5.70;99.90;;;;;;4869964;29;20033;-76
2023/01/24 12:37:48;;;;;;;18.27;8.45;;;5.70;99.90;;;;;;4870220;29;20382;-75
2023/01/24 12:40:14;;;;;;;18.30;9.80;;;5.70;99.90;;;;;;4870065;29;20219;-75
2023/01/24 12:43:01;;;;;;;16.08;9.07;;;5.70;99.90;;;;;;4869542;29;20037;-76
2023/01/24 12:45:45;;;;;;;14.93;7.93;;;5.70;99.90;;;;;;4869992;29;20025;-77
2023/01/24 12:48:30;;;;;;;14.45;8.23;;;5.60;99.90;;;;;;4869459;29;20062;-75
2023/01/24 12:51:07;;;;;;;15.30;7.35;;;5.50;99.90;;;;;;4868619;29;20060;-75
2023/01/24 12:53:41;;;;;;;13.20;7.70;;;5.50;99.90;;;;;;4851352;29;20101;-76
2023/01/24 12:56:24;;;;;;;16.75;8.30;;;5.50;99.90;;;;;;4865424;29;20380;-75
2023/01/24 12:58:52;;;;;;;14.45;8.15;;;5.60;99.90;;;;;;4866771;29;20081;-75
2023/01/24 13:01:25;;;;;;;;;;;5.60;99.90;;;;;;4869726;29;20336;-75
2023/01/24 13:04:10;;;;;;;16.23;9.30;;;5.60;99.90;;;;;;4866597;29;20005;-74
2023/01/24 13:06:56;;;;;;;23.50;12.93;;;5.60;99.90;;;;;;4860493;29;20230;-75
2023/01/24 13:09:34;;;;;;;16.50;8.10;;;5.50;99.90;;;;;;4854793;29;20048;-76
2023/01/24 13:12:04;;;;;;;13.45;7.35;;;5.50;99.90;;;;;;4852880;29;20060;-74
2023/01/24 13:14:44;;;;;;;13.23;7.68;;;5.30;99.90;;;;;;4869304;29;20147;-73
2023/01/24 13:17:46;;;;;;;15.50;7.82;;;5.30;99.90;;;;;;4869085;29;20025;-76
2023/01/24 13:20:42;;;;;;;16.15;8.32;;;5.40;99.90;;;;;;4869011;29;20029;-73
2023/01/24 13:23:30;;;;;;;13.02;7.72;;;5.40;99.90;;;;;;4849658;29;20315;-73
2023/01/24 13:25:59;;;;;;;16.27;8.93;;;5.30;99.90;;;;;;4850586;29;20050;-74
2023/01/24 13:28:49;;;;;;;16.15;8.60;;;5.20;99.90;;;;;;4850671;29;20043;-76
2023/01/24 13:31:32;;;;;;;13.05;7.75;;;5.20;99.90;;;;;;4867044;29;20044;-74
2023/01/24 13:34:10;;;;;;;17.15;8.50;;;5.20;99.90;;;;;;4869197;29;20061;-75
2023/01/24 13:36:38;;;;;;;15.25;7.68;;;5.10;99.90;;;;;;4883144;29;20295;-76
2023/01/24 13:39:05;;;;;;;14.37;7.80;;;5.10;99.90;;;;;;4870558;29;20057;-76
2023/01/24 13:41:37;;;;;;;16.73;8.10;;;5.10;99.90;;;;;;4876343;29;20834;-73
2023/01/24 13:44:29;;;;;;;14.70;7.95;;;5.10;99.90;;;;;;4869089;29;20069;-73
2023/01/24 13:47:04;;;;;;;15.68;7.65;;;5.10;99.90;;;;;;4868513;29;20065;-76
2023/01/24 13:49:37;;;;;;;15.05;8.85;;;5.10;99.90;;;;;;4866316;29;20123;-73
2023/01/24 13:52:24;;;;;;;14.90;8.13;;;5.10;99.90;;;;;;4869008;29;20048;-75
2023/01/24 13:54:49;;;;;;;14.38;7.88;;;5.10;99.90;;;;;;4868460;29;20327;-75
2023/01/24 13:57:28;;;;;;;13.15;7.45;;;5.10;99.90;;;;;;4868639;29;20040;-75
2023/01/24 14:00:08;;;;;;;13.90;7.57;;;5.10;99.90;;;;;;4869104;29;20089;-75
2023/01/24 14:02:57;;;;;;;16.77;8.48;;;5.10;99.90;;;;;;4871089;29;20056;-75
2023/01/24 14:05:29;;;;;;;15.10;8.13;;;5.00;99.90;;;;;;4872483;29;20129;-75
2023/01/24 14:08:32;;;;;;;13.68;8.00;;;5.00;99.90;;;;;;4872244;29;20158;-74
2023/01/24 14:11:03;;;;;;;14.52;7.97;;;4.90;99.90;;;;;;4872068;29;20311;-74
2023/01/24 14:13:47;;;;;;;14.10;7.70;;;4.90;99.90;;;;;;4856903;29;20212;-76
2023/01/24 14:16:26;;;;;;;14.48;8.50;;;4.80;99.90;;;;;;4853677;29;20034;-75
2023/01/24 14:19:12;;;;;;;14.10;8.25;;;4.80;99.90;;;;;;4853469;29;20048;-75
2023/01/24 14:22:08;;;;;;;15.38;8.35;;;4.80;99.90;;;;;;4853664;29;20237;-75
2023/01/24 14:24:53;;;;;;;14.68;8.15;;;4.80;99.90;;;;;;4853801;29;20040;-74
2023/01/24 14:27:38;;;;;;;13.93;7.82;;;4.80;99.90;;;;;;4853623;29;20030;-75
2023/01/24 14:30:17;;;;;;;15.70;7.97;;;4.70;99.90;;;;;;4860533;29;20211;-76
2023/01/24 14:32:43;;;;;;;12.60;7.25;;;4.70;99.90;;;;;;4886104;29;20056;-76
2023/01/24 14:35:22;;;;;;;15.85;7.93;;;4.70;99.90;;;;;;4871856;29;20037;-78
2023/01/24 14:37:50;;;;;;;16.38;8.32;;;4.70;99.90;;;;;;4871553;29;20052;-76
2023/01/24 14:40:28;;;;;;;14.35;7.93;;;4.60;99.90;;;;;;4871831;29;20030;-76
2023/01/24 14:43:02;;;;;;;14.23;7.55;;;4.60;99.90;;;;;;4871499;29;20082;-77
2023/01/24 14:45:31;;;;;;;14.10;7.78;;;4.60;99.90;;;;;;4872080;29;20037;-75
2023/01/24 14:47:57;;;;;;;;;;;4.60;99.90;;;;;;4871899;29;20053;-74
2023/01/24 14:50:31;;;;;;;14.77;8.07;;;4.60;99.90;;;;;;4871269;29;19978;-75
2023/01/24 14:52:58;;;;;;;12.43;7.80;;;4.60;99.90;;;;;;4870942;29;20037;-74
2023/01/24 14:55:26;;;;;;;16.15;8.85;;;4.60;99.90;;;;;;4871784;29;20086;-75
2023/01/24 14:57:52;;;;;;;;;;;4.60;99.90;;;;;;4871775;29;20048;-74
2023/01/24 15:00:20;;;;;;;12.95;7.63;;;4.60;99.90;;;;;;4871357;29;19904;-76
2023/01/24 15:02:56;;;;;;;16.35;8.50;;;4.60;99.90;;;;;;4871099;29;20328;-78
2023/01/24 15:05:35;;;;;;;18.58;8.70;;;4.60;99.90;;;;;;4871883;29;20105;-75
2023/01/24 15:08:03;;;;;;;14.45;7.78;;;4.60;99.90;;;;;;4870680;29;20041;-75
2023/01/24 15:10:36;;;;;;;17.08;8.48;;;4.60;99.90;;;;;;4871436;29;20049;-75
2023/01/24 15:13:06;;;;;;;14.48;8.48;;;4.60;99.90;;;;;;4858582;29;20041;-75
2023/01/24 15:15:32;;;;;;;15.07;8.43;;;4.50;99.90;;;;;;4852740;29;20034;-77
2023/01/24 15:18:18;;;;;;;17.98;9.05;;;4.50;99.90;;;;;;4852042;29;20049;-73
2023/01/24 15:20:47;;;;;;;15.43;8.65;;;4.50;99.90;;;;;;4852206;29;20275;-75
2023/01/24 15:23:19;;;;;;;15.63;8.18;;;4.50;99.90;;;;;;4852355;29;20037;-74
2023/01/24 15:25:45;;;;;;;15.15;8.85;;;4.40;99.90;;;;;;4852337;29;20041;-75
2023/01/24 15:28:31;;;;;;;17.38;8.93;;;4.40;99.90;;;;;;4852479;29;20291;-75
2023/01/24 15:30:59;;;;;;;16.63;8.55;;;4.40;99.90;;;;;;4864379;29;20113;-77
2023/01/24 15:33:42;;;;;;;17.63;8.60;;;4.40;99.90;;;;;;4870961;29;20048;-75
2023/01/24 15:36:26;;;;;;;13.90;8.82;;;4.40;99.90;;;;;;4870041;29;20041;-74
2023/01/24 15:38:55;;;;;;;18.92;9.90;;;4.40;99.90;;;;;;4870494;29;20172;-76
2023/01/24 15:44:16;;;;;;;18.40;8.63;;;4.30;99.90;;;;;;4870621;29;20097;-74
2023/01/24 15:49:40;;;;;;;18.20;9.98;;;4.30;99.90;;;;;;4869994;29;20338;-76
2023/01/24 15:52:17;;;;;;;19.30;10.60;;;4.30;99.90;;;;;;4870759;29;20261;-75
2023/01/24 15:54:53;;;;;;;18.73;10.95;;;4.30;99.90;;;;;;4870393;29;20315;-76
2023/01/24 15:57:23;;;;;;;20.25;11.00;;;4.20;99.90;;;;;;4870278;29;20056;-75
2023/01/24 16:00:03;;;;;;;17.92;9.40;;;4.20;99.90;;;;;;4869636;29;20040;-75
2023/01/24 16:02:35;;;;;;;17.33;9.45;;;4.20;99.90;;;;;;4870051;29;20346;-74
2023/01/24 16:05:01;;;;;;;19.25;10.93;;;4.20;99.90;;;;;;4870051;29;20132;-74
2023/01/24 16:07:27;;;;;;;19.63;10.70;;;4.20;99.90;;;;;;4870270;29;20095;-75
2023/01/24 16:09:55;;;;;;;18.63;10.23;;;4.10;99.90;;;;;;4870170;29;20220;-73
2023/01/24 16:12:22;;;;;;;;;;;4.10;99.90;;;;;;4870890;29;20061;-74
2023/01/24 16:14:50;;;;;;;26.55;16.88;;;4.10;99.90;;;;;;4870235;29;19908;-75
2023/01/24 16:17:18;;;;;;;;;;;4.00;99.90;;;;;;4885247;29;20033;-74
2023/01/24 16:19:44;;;;;;;19.23;10.88;;;4.00;99.90;;;;;;4869835;29;20053;-74
2023/01/24 16:22:10;;;;;;;18.02;11.45;;;4.00;99.90;;;;;;4869956;29;20213;-75
2023/01/24 16:24:36;;;;;;;20.55;11.40;;;4.00;99.90;;;;;;4869677;29;20066;-75
2023/01/24 16:27:02;;;;;;;22.48;11.18;;;4.00;99.90;;;;;;4869559;29;20037;-74
2023/01/24 16:29:29;;;;;;;20.95;11.05;;;4.00;99.90;;;;;;4870194;29;20037;-75
2023/01/24 16:31:56;;;;;;;21.20;10.93;;;4.00;99.90;;;;;;4869568;29;20041;-76
2023/01/24 16:34:22;;;;;;;23.30;11.88;;;4.00;99.90;;;;;;4870299;29;20102;-76
2023/01/24 16:36:47;;;;;;;22.02;12.27;;;4.00;99.90;;;;;;4869435;29;20372;-74
2023/01/24 16:39:17;;;;;;;22.95;11.48;;;3.90;99.90;;;;;;4869883;29;20037;-75
2023/01/24 16:41:45;;;;;;;22.13;11.27;;;3.90;99.90;;;;;;4870297;29;20043;-75
2023/01/24 16:44:11;;;;;;;22.52;12.15;;;3.90;99.90;;;;;;4869472;29;20037;-75
2023/01/24 16:46:37;;;;;;;18.52;11.23;;;3.90;99.90;;;;;;4869825;29;20029;-74
2023/01/24 16:49:02;;;;;;;22.95;11.80;;;3.80;99.90;;;;;;4869054;29;20034;-75
2023/01/24 16:51:28;;;;;;;22.63;11.63;;;3.90;99.90;;;;;;4870319;29;20036;-74
2023/01/24 16:53:57;;;;;;;22.30;11.90;;;3.90;99.90;;;;;;4869474;29;20046;-75
2023/01/24 16:56:23;;;;;;;19.38;11.52;;;3.90;99.90;;;;;;4869884;29;20303;-74
2023/01/24 16:58:55;;;;;;;19.50;11.50;;;3.90;99.90;;;;;;4869196;29;20052;-73
2023/01/24 17:01:21;;;;;;;26.00;12.48;;;3.90;99.90;;;;;;4853649;29;20041;-74
2023/01/24 17:03:51;;;;;;;23.75;12.50;;;3.80;99.90;;;;;;4864731;29;20094;-74
2023/01/24 17:06:17;;;;;;;25.23;12.90;;;3.80;99.90;;;;;;4851400;29;20049;-78
2023/01/24 17:08:42;;;;;;;26.17;12.48;;;3.80;99.90;;;;;;4850883;29;20041;-75
2023/01/24 17:11:10;;;;;;;24.02;12.55;;;3.80;99.90;;;;;;4850598;29;20109;-75
2023/01/24 17:13:37;;;;;;;35.58;21.25;;;3.80;99.90;;;;;;4850995;29;20037;-74
2023/01/24 17:16:07;;;;;;;24.85;14.00;;;3.80;99.90;;;;;;4850601;29;20060;-74
2023/01/24 17:18:34;;;;;;;25.35;12.98;;;3.80;99.90;;;;;;4851004;29;20037;-73
2023/01/24 17:21:06;;;;;;;25.60;13.27;;;3.80;99.90;;;;;;4850752;29;20045;-76
2023/01/24 17:23:33;;;;;;;24.98;13.10;;;3.70;99.90;;;;;;4851004;29;20104;-74
2023/01/24 17:26:13;;;;;;;27.17;13.70;;;3.70;99.90;;;;;;4850892;29;20174;-75
2023/01/24 17:28:40;;;;;;;24.75;13.05;;;3.70;99.90;;;;;;4850434;29;20042;-74
2023/01/24 17:31:11;;;;;;;27.75;13.50;;;3.70;99.90;;;;;;4850297;29;20049;-74
2023/01/24 17:33:37;;;;;;;26.73;13.18;;;3.70;99.90;;;;;;4850759;29;20030;-75
2023/01/24 17:36:04;;;;;;;25.90;13.98;;;3.70;99.90;;;;;;4850549;29;20033;-73
2023/01/24 17:38:30;;;;;;;27.95;13.25;;;3.60;99.90;;;;;;4854772;29;20105;-72
2023/01/24 17:40:56;;;;;;;26.05;13.77;;;3.60;99.90;;;;;;4854253;29;20033;-74
2023/01/24 17:43:22;;;;;;;24.10;13.68;;;3.70;99.90;;;;;;4855022;29;20216;-74
2023/01/24 17:45:59;;;;;;;27.45;14.63;;;3.60;99.90;;;;;;4854059;29;20045;-74
2023/01/24 17:48:26;;;;;;;29.55;14.85;;;3.70;99.90;;;;;;4854634;29;20034;-73
2023/01/24 17:50:52;;;;;;;28.90;14.73;;;3.60;99.90;;;;;;4859417;29;20037;-74
2023/01/24 17:53:18;;;;;;;25.83;13.73;;;3.60;99.90;;;;;;4872840;29;20037;-72
2023/01/24 17:55:45;;;;;;;30.02;15.20;;;3.50;99.90;;;;;;4872704;29;20037;-72
2023/01/24 17:58:12;;;;;;;27.45;15.10;;;3.50;99.90;;;;;;4872599;29;20207;-73
2023/01/24 18:00:38;;;;;;;26.73;14.55;;;3.60;99.90;;;;;;4862035;29;20236;-73
2023/01/24 18:03:05;;;;;;;29.40;14.82;;;3.60;99.90;;;;;;4853420;29;20061;-72
2023/01/24 18:05:32;;;;;;;27.35;15.00;;;3.60;99.90;;;;;;4857337;29;20299;-72
2023/01/24 18:07:58;;;;;;;25.27;14.10;;;3.60;99.90;;;;;;4871985;29;20037;-72
2023/01/24 18:10:24;;;;;;;26.75;14.32;;;3.60;99.90;;;;;;4872643;29;20059;-74
2023/01/24 18:12:49;;;;;;;27.17;15.30;;;3.60;99.90;;;;;;4871987;29;20042;-72
2023/01/24 18:15:15;;;;;;;25.83;14.20;;;3.60;99.90;;;;;;4872816;29;20037;-73
2023/01/24 18:17:41;;;;;;;26.63;13.77;;;3.60;99.90;;;;;;4872559;29;20199;-72
2023/01/24 18:20:08;;;;;;;27.40;14.98;;;3.60;99.90;;;;;;4872103;29;20029;-73
2023/01/24 18:22:33;;;;;;;27.80;15.13;;;3.60;99.90;;;;;;4872248;29;20078;-72
2023/01/24 18:24:59;;;;;;;25.88;15.40;;;3.60;99.90;;;;;;4872236;29;20041;-73
2023/01/24 18:27:26;;;;;;;30.20;15.25;;;3.60;99.90;;;;;;4872160;29;20029;-74
2023/01/24 18:29:52;;;;;;;25.83;14.77;;;3.60;99.90;;;;;;4871079;29;20041;-75
2023/01/24 18:32:18;;;;;;;28.63;15.35;;;3.60;99.90;;;;;;4871384;29;20085;-76
2023/01/24 18:34:44;;;;;;;26.67;14.95;;;3.60;99.90;;;;;;4872303;29;20039;-76
2023/01/24 18:37:10;;;;;;;26.70;14.80;;;3.60;99.90;;;;;;4871886;29;20516;-75
2023/01/24 18:39:36;;;;;;;29.38;15.90;;;3.60;99.90;;;;;;4872178;29;20033;-76
2023/01/24 18:42:05;;;;;;;25.25;14.27;;;3.60;99.90;;;;;;4871501;29;20264;-74
2023/01/24 18:44:31;;;;;;;26.63;14.23;;;3.60;99.90;;;;;;4872303;29;20038;-72